Time;durP1;ratioP1;P1;durP2;ratioP2;P2;SDS_P1;SDS_P2;PMS_P1;PMS_P2;Temp;Humidity;BMP_temperature;BMP_pressure;BME280_temperature;BME280_humidity;BME280_pressure;Samples;Min_cycle;Max_cycle;Signal;HPM_P1;HPM_P2
2022/08/02 00:00:15;;;;;;;3.27;3.07;;;23.60;59.50;;;;;;20630;6834;120398;-86
2022/08/02 00:02:41;;;;;;;3.40;3.30;;;23.40;60.00;;;;;;20318;6886;339729;-85
2022/08/02 00:05:16;;;;;;;3.80;3.50;;;23.40;59.90;;;;;;20383;6825;309817;-85
2022/08/02 00:07:52;;;;;;;3.70;3.40;;;23.60;59.40;;;;;;20464;6825;283065;-85
2022/08/02 00:10:28;;;;;;;3.83;3.53;;;23.70;59.00;;;;;;20412;6843;311665;-86
2022/08/02 00:13:03;;;;;;;3.60;3.40;;;23.70;58.70;;;;;;20449;6817;307612;-85
2022/08/02 00:15:39;;;;;;;4.07;3.60;;;23.70;58.50;;;;;;20411;6823;310687;-86
2022/08/02 00:18:15;;;;;;;4.28;4.03;;;23.70;58.50;;;;;;20475;6808;279419;-84
2022/08/02 00:20:51;;;;;;;4.70;4.30;;;23.70;59.30;;;;;;20498;6808;342816;-84
2022/08/02 00:23:27;;;;;;;5.20;4.70;;;23.70;58.70;;;;;;20493;6808;281186;-86
2022/08/02 00:26:03;;;;;;;13.32;6.10;;;23.80;58.90;;;;;;20451;6808;313323;-86
2022/08/02 00:28:39;;;;;;;31.60;5.57;;;23.80;58.80;;;;;;20716;6808;117549;-86
2022/08/02 00:31:15;;;;;;;35.13;6.47;;;23.50;59.60;;;;;;20497;6808;313122;-85
2022/08/02 00:33:50;;;;;;;73.03;6.60;;;23.40;60.00;;;;;;20766;6793;117643;-85
2022/08/02 00:36:26;;;;;;;29.10;6.20;;;23.20;60.60;;;;;;20444;6807;282810;-85
2022/08/02 00:39:02;;;;;;;31.77;5.83;;;23.20;60.90;;;;;;20687;6817;118530;-85
2022/08/02 00:41:37;;;;;;;15.97;5.93;;;23.00;61.20;;;;;;20491;6817;284439;-85
2022/08/02 00:44:16;;;;;;;10.48;5.50;;;23.10;60.90;;;;;;20464;6823;342888;-85
2022/08/02 00:46:51;;;;;;;5.37;4.87;;;23.20;60.50;;;;;;20534;6823;119196;-85
2022/08/02 00:49:27;;;;;;;4.80;4.50;;;23.00;60.90;;;;;;20583;6849;118013;-86
2022/08/02 00:52:03;;;;;;;4.50;4.20;;;22.70;61.70;;;;;;20473;6868;118813;-86
2022/08/02 00:54:38;;;;;;;3.60;3.40;;;22.50;62.40;;;;;;20543;6851;117558;-85
2022/08/02 00:57:15;;;;;;;3.70;3.50;;;22.30;62.80;;;;;;20461;6851;119414;-86
2022/08/02 00:59:52;;;;;;;5.50;3.50;;;22.20;63.20;;;;;;20690;6816;117390;-86
2022/08/02 01:02:27;;;;;;;4.00;3.70;;;22.10;63.30;;;;;;20432;6831;310277;-85
2022/08/02 01:05:03;;;;;;;4.00;3.70;;;22.30;62.00;;;;;;20367;6831;311184;-86
2022/08/02 01:07:41;;;;;;;4.10;3.80;;;22.90;60.10;;;;;;20486;6816;278982;-84
2022/08/02 01:10:16;;;;;;;4.00;3.70;;;22.90;60.10;;;;;;20469;6816;290787;-85
2022/08/02 01:12:53;;;;;;;3.40;3.30;;;23.00;59.30;;;;;;20689;6816;121383;-86
2022/08/02 01:15:29;;;;;;;3.80;3.50;;;22.80;60.00;;;;;;20414;6816;309913;-85
2022/08/02 01:18:05;;;;;;;4.10;3.80;;;22.80;59.90;;;;;;20425;6828;307867;-85
2022/08/02 01:20:53;;;;;;;3.90;3.60;;;22.90;59.50;;;;;;20600;6828;117735;-86
2022/08/02 01:23:38;;;;;;;3.40;3.20;;;22.70;60.00;;;;;;20590;6828;118159;-85
2022/08/02 01:26:34;;;;;;;4.70;3.43;;;22.20;60.90;;;;;;20543;6828;117877;-84
2022/08/02 01:29:13;;;;;;;3.27;3.07;;;21.70;63.00;;;;;;20593;6831;120341;-86
2022/08/02 01:32:02;;;;;;;4.07;3.77;;;21.70;62.50;;;;;;20647;6825;121781;-85
2022/08/02 01:34:38;;;;;;;3.70;3.40;;;21.50;63.10;;;;;;20543;6860;118074;-86
2022/08/02 01:37:36;;;;;;;3.53;3.30;;;21.40;63.50;;;;;;20132;6858;281961;-85
2022/08/02 01:40:12;;;;;;;3.20;2.90;;;21.70;62.80;;;;;;20561;6858;119297;-86
2022/08/02 01:42:49;;;;;;;3.20;3.00;;;21.70;62.70;;;;;;20483;6815;278826;-85
2022/08/02 01:45:24;;;;;;;3.43;3.10;;;21.90;61.80;;;;;;20396;6811;314644;-85
2022/08/02 01:48:00;;;;;;;3.23;2.93;;;22.20;60.40;;;;;;20494;6811;311141;-85
2022/08/02 01:50:36;;;;;;;3.15;2.75;;;22.60;58.90;;;;;;20511;6811;278810;-85
2022/08/02 01:53:12;;;;;;;2.90;2.70;;;22.60;58.90;;;;;;20476;6811;337272;-85
2022/08/02 01:55:51;;;;;;;2.77;2.67;;;22.70;58.40;;;;;;20624;6811;120478;-85
2022/08/02 01:58:26;;;;;;;3.03;2.63;;;22.40;59.10;;;;;;20683;6811;118448;-84
2022/08/02 02:01:02;;;;;;;3.17;2.97;;;22.00;59.80;;;;;;20420;6811;308101;-85
2022/08/02 02:03:48;;;;;;;2.80;2.60;;;22.10;60.00;;;;;;20682;6811;118655;-84
2022/08/02 02:06:14;;;;;;;2.50;2.20;;;21.90;60.20;;;;;;20583;6816;117925;-84
2022/08/02 02:08:49;;;;;;;2.50;2.40;;;21.70;61.00;;;;;;20659;6811;116721;-88
2022/08/02 02:11:26;;;;;;;2.10;2.00;;;21.50;61.50;;;;;;20613;6811;118759;-87
2022/08/02 02:14:02;;;;;;;2.37;2.27;;;21.30;61.90;;;;;;20582;6839;118108;-85
2022/08/02 02:16:37;;;;;;;2.30;2.10;;;21.20;62.20;;;;;;20388;6853;118165;-89
2022/08/02 02:19:15;;;;;;;2.60;2.40;;;21.10;62.50;;;;;;20313;6873;279760;-84
2022/08/02 02:21:48;;;;;;;2.50;2.30;;;21.40;60.90;;;;;;20401;6825;312582;-85
2022/08/02 02:24:24;;;;;;;2.10;2.00;;;21.80;59.40;;;;;;20559;6844;117578;-84
2022/08/02 02:27:00;;;;;;;2.33;2.00;;;21.80;59.50;;;;;;20465;6825;118395;-85
2022/08/02 02:29:35;;;;;;;2.50;2.20;;;21.50;60.10;;;;;;20383;6834;310310;-84
2022/08/02 02:32:11;;;;;;;3.40;2.20;;;21.70;59.40;;;;;;20399;6830;314681;-84
2022/08/02 02:34:48;;;;;;;2.37;1.93;;;22.00;58.60;;;;;;20627;6886;116631;-84
2022/08/02 02:37:23;;;;;;;2.73;2.23;;;21.90;59.00;;;;;;20403;6890;118111;-84
2022/08/02 02:39:59;;;;;;;2.63;2.37;;;21.60;59.90;;;;;;20550;6845;118150;-84
2022/08/02 02:42:34;;;;;;;2.67;2.47;;;21.40;60.60;;;;;;20452;6830;301906;-84
2022/08/02 02:45:13;;;;;;;2.80;2.60;;;21.50;60.30;;;;;;20380;6844;309142;-84
2022/08/02 02:47:46;;;;;;;2.60;2.50;;;21.90;59.70;;;;;;20664;6830;116989;-85
2022/08/02 02:50:30;;;;;;;4.30;2.80;;;21.80;60.00;;;;;;20659;6830;116632;-84
2022/08/02 02:52:57;;;;;;;3.13;2.93;;;21.50;60.80;;;;;;20458;6825;300727;-84
2022/08/02 02:55:32;;;;;;;5.20;2.70;;;21.70;60.70;;;;;;20545;6825;117907;-85
2022/08/02 02:58:08;;;;;;;5.27;2.40;;;21.60;60.80;;;;;;20610;6830;118651;-85
2022/08/02 03:03:39;;;;;;;3.43;2.80;;;21.60;60.90;;;;;;20607;6829;118107;-84
2022/08/02 03:06:16;;;;;;;3.10;2.90;;;21.60;61.10;;;;;;20313;6829;285370;-85
2022/08/02 03:08:51;;;;;;;3.30;2.87;;;21.70;60.60;;;;;;20409;6825;317655;-85
2022/08/02 03:11:28;;;;;;;3.20;3.00;;;22.00;59.60;;;;;;20594;6825;117919;-85
2022/08/02 03:14:02;;;;;;;3.73;2.90;;;21.80;59.80;;;;;;20415;6825;309743;-85
2022/08/02 03:16:41;;;;;;;2.87;2.77;;;21.90;59.80;;;;;;20508;6825;68485;-86
2022/08/02 03:19:16;;;;;;;3.43;3.07;;;21.70;59.90;;;;;;20382;6882;282155;-87
2022/08/02 03:21:54;;;;;;;2.83;2.72;;;21.80;59.40;;;;;;20411;6825;308878;-86
2022/08/02 03:24:30;;;;;;;2.90;2.70;;;22.10;58.10;;;;;;20417;6825;317797;-85
2022/08/02 03:27:07;;;;;;;3.20;2.90;;;22.10;58.10;;;;;;20231;6825;350212;-86
2022/08/02 03:29:43;;;;;;;2.60;2.50;;;22.30;57.20;;;;;;20407;6830;308914;-87
2022/08/02 03:32:19;;;;;;;2.60;2.50;;;22.30;57.20;;;;;;20615;6830;117542;-85
2022/08/02 03:34:54;;;;;;;2.63;2.43;;;21.90;57.90;;;;;;20609;6830;117515;-83
2022/08/02 03:37:30;;;;;;;3.77;2.47;;;21.50;59.00;;;;;;20427;6886;118264;-85
2022/08/02 03:40:07;;;;;;;3.00;2.73;;;21.00;60.90;;;;;;20605;6830;119092;-84
2022/08/02 03:42:42;;;;;;;2.90;2.53;;;20.90;60.50;;;;;;20398;6830;282382;-85
2022/08/02 03:45:19;;;;;;;3.10;2.80;;;21.20;59.80;;;;;;20340;6830;343721;-85
2022/08/02 03:47:55;;;;;;;2.95;2.60;;;21.60;59.00;;;;;;20353;6842;300318;-85
2022/08/02 03:50:30;;;;;;;3.70;2.40;;;21.80;58.30;;;;;;20364;6842;282584;-85
2022/08/02 03:53:06;;;;;;;2.20;2.10;;;22.00;58.90;;;;;;20333;6842;310540;-85
2022/08/02 03:55:41;;;;;;;3.07;2.17;;;22.30;58.00;;;;;;20302;6842;309604;-86
2022/08/02 03:58:17;;;;;;;2.10;1.90;;;22.70;56.70;;;;;;20551;6842;118132;-86
2022/08/02 04:00:53;;;;;;;2.20;1.90;;;22.70;57.10;;;;;;20353;6842;309797;-84
2022/08/02 04:03:28;;;;;;;2.83;1.80;;;22.90;55.90;;;;;;20548;6842;117573;-86
2022/08/02 04:06:04;;;;;;;3.07;1.97;;;22.80;56.80;;;;;;20489;6842;118414;-85
2022/08/02 04:08:39;;;;;;;2.30;1.87;;;22.70;56.80;;;;;;20393;6830;283814;-84
2022/08/02 04:11:31;;;;;;;2.20;2.00;;;22.90;55.00;;;;;;20371;6829;331309;-86
2022/08/02 04:14:08;;;;;;;1.90;1.80;;;23.30;54.30;;;;;;20393;6829;280367;-86
2022/08/02 04:16:51;;;;;;;1.90;1.60;;;23.60;53.40;;;;;;20268;6829;327192;-86
2022/08/02 04:19:38;;;;;;;1.77;1.67;;;23.70;53.60;;;;;;20580;6825;120908;-86
2022/08/02 04:22:13;;;;;;;3.90;1.43;;;23.70;53.60;;;;;;20620;6825;123358;-86
2022/08/02 04:24:48;;;;;;;1.97;1.87;;;23.40;54.30;;;;;;20621;6825;117417;-86
2022/08/02 04:27:25;;;;;;;1.90;1.70;;;23.40;54.00;;;;;;20227;6881;295174;-83
2022/08/02 04:30:00;;;;;;;1.70;1.60;;;23.40;53.40;;;;;;20554;6829;118389;-86
2022/08/02 04:32:36;;;;;;;1.60;1.50;;;23.40;53.80;;;;;;20544;6844;117502;-85
2022/08/02 04:35:11;;;;;;;1.83;1.73;;;23.20;54.20;;;;;;20554;6840;118112;-85
2022/08/02 04:37:47;;;;;;;1.50;1.40;;;23.00;54.60;;;;;;20587;6834;117700;-86
2022/08/02 04:40:23;;;;;;;1.93;1.73;;;23.20;53.40;;;;;;20377;6849;279795;-84
2022/08/02 04:42:59;;;;;;;1.63;1.53;;;23.20;53.40;;;;;;20390;6848;283285;-85
2022/08/02 04:45:34;;;;;;;4.63;1.70;;;23.70;52.70;;;;;;20567;6844;118651;-84
2022/08/02 04:48:16;;;;;;;1.60;1.50;;;23.60;53.00;;;;;;20618;6839;117532;-86
2022/08/02 04:50:46;;;;;;;2.43;1.30;;;23.40;53.60;;;;;;20604;6846;117609;-86
2022/08/02 04:53:21;;;;;;;2.20;1.70;;;23.20;54.20;;;;;;20394;6835;309871;-85
2022/08/02 04:55:57;;;;;;;3.70;1.70;;;23.40;53.10;;;;;;20342;6840;313093;-86
2022/08/02 04:58:32;;;;;;;1.87;1.77;;;23.80;52.30;;;;;;20417;6835;300217;-85
2022/08/02 05:01:08;;;;;;;1.50;1.50;;;24.10;51.60;;;;;;20510;6854;127919;-85
2022/08/02 05:03:43;;;;;;;1.80;1.70;;;23.90;52.20;;;;;;20333;6900;285043;-86
2022/08/02 05:06:19;;;;;;;3.03;1.50;;;24.00;51.70;;;;;;20506;6854;118298;-86
2022/08/02 05:08:54;;;;;;;1.80;1.40;;;23.90;52.40;;;;;;20662;6825;117512;-84
2022/08/02 05:11:31;;;;;;;3.00;1.60;;;23.80;52.40;;;;;;20440;6824;312430;-86
2022/08/02 05:14:06;;;;;;;1.60;1.60;;;23.80;52.40;;;;;;20694;6816;117457;-88
2022/08/02 05:16:42;;;;;;;2.30;1.60;;;23.70;52.80;;;;;;20574;6816;117762;-87
2022/08/02 05:19:17;;;;;;;1.60;1.50;;;23.50;53.30;;;;;;20599;6843;117703;-85
2022/08/02 05:21:55;;;;;;;2.27;1.50;;;23.60;52.70;;;;;;20430;6836;284568;-86
2022/08/02 05:24:31;;;;;;;1.67;1.53;;;23.60;52.70;;;;;;20381;6842;312570;-86
2022/08/02 05:27:06;;;;;;;1.67;1.57;;;24.10;51.90;;;;;;20312;6867;122041;-86
2022/08/02 05:29:42;;;;;;;2.03;1.80;;;24.10;52.30;;;;;;20495;6810;309680;-85
2022/08/02 05:32:18;;;;;;;1.87;1.67;;;24.40;51.40;;;;;;20354;6857;283616;-86
2022/08/02 05:34:53;;;;;;;1.60;1.60;;;24.70;50.90;;;;;;20689;6806;117333;-88
2022/08/02 05:37:29;;;;;;;1.83;1.73;;;24.60;51.50;;;;;;20462;6869;118273;-91
2022/08/02 05:40:05;;;;;;;1.60;1.50;;;24.40;52.10;;;;;;20710;6813;117136;-86
2022/08/02 05:42:42;;;;;;;2.27;1.60;;;24.20;52.70;;;;;;20679;6798;117395;-85
2022/08/02 05:45:19;;;;;;;2.65;2.37;;;24.00;53.00;;;;;;20342;6828;310111;-86
2022/08/02 05:47:54;;;;;;;2.37;2.20;;;24.20;52.80;;;;;;20473;6816;338177;-88
2022/08/02 05:50:30;;;;;;;2.23;2.03;;;24.40;52.40;;;;;;20697;6815;119010;-87
2022/08/02 05:53:38;;;;;;;2.03;1.93;;;24.30;52.90;;;;;;20392;6820;280373;-85
2022/08/02 05:56:23;;;;;;;2.50;2.40;;;24.30;52.50;;;;;;19784;6944;283166;-87
2022/08/02 05:59:02;;;;;;;2.33;2.10;;;24.60;52.90;;;;;;20697;6816;117487;-86
2022/08/02 06:01:38;;;;;;;2.33;2.13;;;24.30;53.40;;;;;;20749;6816;116576;-86
2022/08/02 06:04:13;;;;;;;2.30;2.20;;;23.90;54.30;;;;;;20712;6816;117511;-86
2022/08/02 06:06:50;;;;;;;3.07;2.30;;;23.80;55.50;;;;;;20377;6816;280869;-87
2022/08/02 06:09:25;;;;;;;2.90;2.33;;;23.80;54.90;;;;;;20454;6813;312902;-86
2022/08/02 06:12:01;;;;;;;4.40;2.37;;;24.20;54.10;;;;;;20602;6828;117726;-86
2022/08/02 06:14:37;;;;;;;2.80;2.23;;;23.70;55.00;;;;;;20683;6813;117722;-87
2022/08/02 06:17:13;;;;;;;2.40;2.30;;;23.70;55.00;;;;;;20260;6813;281528;-85
2022/08/02 06:19:48;;;;;;;2.50;2.23;;;23.80;55.00;;;;;;20676;6816;117511;-85
2022/08/02 06:22:27;;;;;;;2.20;2.10;;;23.70;55.20;;;;;;20456;6815;308188;-86
2022/08/02 06:25:05;;;;;;;2.65;2.45;;;23.90;55.00;;;;;;20284;6839;310301;-86
2022/08/02 06:27:38;;;;;;;2.43;2.33;;;24.20;54.20;;;;;;20618;6839;118224;-85
2022/08/02 06:30:14;;;;;;;2.03;1.90;;;24.10;54.40;;;;;;20401;6839;117509;-85
2022/08/02 06:33:09;;;;;;;2.40;2.30;;;23.90;54.90;;;;;;19460;7298;69739;-84
2022/08/02 06:35:52;;;;;;;2.33;2.13;;;23.70;55.30;;;;;;20480;6851;118439;-86
2022/08/02 06:38:29;;;;;;;1.93;1.50;;;23.60;55.60;;;;;;20420;6813;117716;-91
2022/08/02 06:41:05;;;;;;;2.00;1.80;;;23.70;56.10;;;;;;20722;6798;118668;-86
2022/08/02 06:43:54;;;;;;;1.80;1.80;;;24.00;55.90;;;;;;20539;6798;118023;-85
2022/08/02 06:46:30;;;;;;;2.30;2.00;;;25.40;51.60;;;;;;19779;6895;310073;-85
2022/08/02 06:49:06;;;;;;;2.00;1.90;;;25.40;52.20;;;;;;20446;6816;306333;-86
2022/08/02 06:51:41;;;;;;;2.07;1.77;;;26.30;49.30;;;;;;20643;6831;117980;-86
2022/08/02 06:54:20;;;;;;;2.00;1.90;;;26.60;49.70;;;;;;20472;6816;279888;-89
2022/08/02 06:56:52;;;;;;;1.95;1.80;;;27.10;48.20;;;;;;20334;6816;311412;-87
2022/08/02 06:59:28;;;;;;;2.07;1.80;;;27.70;47.50;;;;;;20670;6816;119290;-87
2022/08/02 07:02:03;;;;;;;2.00;1.80;;;27.90;48.30;;;;;;20657;6816;122157;-86
2022/08/02 07:04:40;;;;;;;3.57;1.90;;;27.80;48.90;;;;;;20690;6816;117332;-89
2022/08/02 07:07:16;;;;;;;2.10;2.00;;;27.80;49.20;;;;;;20440;6839;123727;-87
2022/08/02 07:09:51;;;;;;;1.93;1.80;;;27.70;49.60;;;;;;20426;6835;279272;-89
2022/08/02 07:12:27;;;;;;;2.10;1.80;;;28.00;47.30;;;;;;20589;6835;119159;-88
2022/08/02 07:15:03;;;;;;;2.53;2.10;;;28.20;47.80;;;;;;20655;6820;145172;-87
2022/08/02 07:17:38;;;;;;;2.10;1.90;;;28.10;48.20;;;;;;20403;6848;313295;-88
2022/08/02 07:20:14;;;;;;;1.93;1.80;;;28.40;46.60;;;;;;20411;6821;313875;-87
2022/08/02 07:22:49;;;;;;;1.62;1.52;;;28.90;45.70;;;;;;20459;6821;337887;-87
2022/08/02 07:25:26;;;;;;;1.40;1.40;;;29.20;44.70;;;;;;20531;6837;118581;-88
2022/08/02 07:28:02;;;;;;;1.70;1.60;;;29.20;45.30;;;;;;20491;6811;308081;-87
2022/08/02 07:30:39;;;;;;;1.80;1.70;;;29.30;44.20;;;;;;20404;6828;279771;-88
2022/08/02 07:33:15;;;;;;;2.00;1.90;;;29.60;44.10;;;;;;20462;6813;308229;-88
2022/08/02 07:35:52;;;;;;;2.20;1.80;;;29.80;43.20;;;;;;20629;6813;117864;-87
2022/08/02 07:38:27;;;;;;;1.80;1.80;;;29.70;44.00;;;;;;20533;6798;278929;-86
2022/08/02 07:41:03;;;;;;;2.40;2.13;;;29.80;42.70;;;;;;20471;6813;309948;-87
2022/08/02 07:43:40;;;;;;;2.30;2.10;;;30.20;42.10;;;;;;20487;6813;308015;-89
2022/08/02 07:46:15;;;;;;;4.07;2.00;;;30.50;42.20;;;;;;20612;6812;117581;-87
2022/08/02 07:48:53;;;;;;;2.40;2.30;;;30.40;42.90;;;;;;20480;6816;279778;-90
2022/08/02 07:51:26;;;;;;;2.10;2.00;;;30.60;42.30;;;;;;20692;6816;117467;-87
2022/08/02 07:54:02;;;;;;;2.30;2.10;;;30.60;43.20;;;;;;20486;6816;279222;-87
2022/08/02 07:56:39;;;;;;;3.10;2.80;;;30.80;42.20;;;;;;20584;6816;118556;-85
2022/08/02 07:59:14;;;;;;;3.20;3.00;;;30.80;42.70;;;;;;20668;6816;118565;-86
2022/08/02 08:01:50;;;;;;;3.70;2.10;;;30.60;42.70;;;;;;20677;6816;117852;-85
2022/08/02 08:04:25;;;;;;;2.70;2.53;;;30.20;42.90;;;;;;20655;6816;117954;-85
2022/08/02 08:07:03;;;;;;;3.20;2.90;;;30.00;43.20;;;;;;20321;6816;312008;-86
2022/08/02 08:09:56;;;;;;;;;;;;;;;;;;;;;
2022/08/02 08:12:25;;;;;;;3.80;3.60;;;30.00;42.50;;;;;;20335;6867;295540;-86
2022/08/02 08:14:50;;;;;;;3.30;3.10;;;30.20;40.80;;;;;;20676;6816;117575;-85
2022/08/02 08:17:26;;;;;;;3.10;2.90;;;30.20;41.50;;;;;;20383;6896;119697;-86
2022/08/02 08:20:02;;;;;;;2.97;2.87;;;29.90;42.30;;;;;;20647;6825;117424;-86
2022/08/02 08:22:37;;;;;;;3.60;3.30;;;29.80;42.80;;;;;;20423;6828;305297;-85
2022/08/02 08:25:14;;;;;;;3.33;3.03;;;30.60;41.10;;;;;;20430;6813;308834;-85
2022/08/02 08:27:50;;;;;;;4.40;4.00;;;30.50;41.00;;;;;;20478;6813;279187;-85
2022/08/02 08:30:25;;;;;;;3.97;3.63;;;30.80;39.70;;;;;;20657;6801;117852;-88
2022/08/02 08:33:01;;;;;;;4.10;3.80;;;30.80;40.80;;;;;;20690;6801;116422;-84
2022/08/02 08:35:38;;;;;;;3.53;3.30;;;30.60;39.80;;;;;;20345;6811;281025;-85
2022/08/02 08:38:15;;;;;;;4.13;3.90;;;30.60;39.90;;;;;;20666;6816;117418;-86
2022/08/02 08:40:50;;;;;;;3.97;3.77;;;30.60;40.40;;;;;;20486;6813;279901;-86
2022/08/02 08:43:26;;;;;;;4.18;3.80;;;30.70;39.70;;;;;;20375;6828;344762;-86
2022/08/02 08:46:12;;;;;;;3.15;3.05;;;31.40;38.50;;;;;;20365;6813;311653;-85
2022/08/02 08:48:38;;;;;;;3.70;3.50;;;31.40;38.60;;;;;;20470;6816;309270;-86
2022/08/02 08:51:16;;;;;;;4.07;3.70;;;31.70;38.80;;;;;;20655;6816;118108;-86
2022/08/02 08:53:52;;;;;;;4.50;4.10;;;31.60;39.30;;;;;;20343;6839;327771;-86
2022/08/02 08:56:28;;;;;;;4.50;4.20;;;31.80;38.20;;;;;;20301;6839;281714;-86
2022/08/02 08:59:04;;;;;;;5.07;4.70;;;31.80;38.10;;;;;;20426;6829;338706;-88
2022/08/02 09:01:41;;;;;;;4.27;4.00;;;31.80;37.20;;;;;;20446;6827;278631;-85
2022/08/02 09:04:16;;;;;;;4.10;3.75;;;31.80;37.80;;;;;;20444;6827;279454;-88
2022/08/02 09:06:54;;;;;;;4.53;4.22;;;31.80;37.70;;;;;;20302;6827;311530;-87
2022/08/02 09:09:28;;;;;;;3.77;3.57;;;31.70;38.60;;;;;;20598;6827;117855;-89
2022/08/02 09:12:18;;;;;;;4.10;3.80;;;31.50;39.30;;;;;;20650;6812;121529;-85
2022/08/02 09:14:53;;;;;;;3.83;3.63;;;31.20;39.60;;;;;;20676;6812;117857;-88
2022/08/02 09:17:30;;;;;;;3.57;3.37;;;30.90;40.20;;;;;;20232;6868;313142;-86
2022/08/02 09:20:06;;;;;;;4.23;4.03;;;31.10;40.30;;;;;;20659;6809;118348;-84
2022/08/02 09:22:42;;;;;;;3.60;3.40;;;31.10;40.30;;;;;;20695;6812;118108;-88
2022/08/02 09:25:17;;;;;;;4.20;3.87;;;30.90;40.60;;;;;;20377;6824;308916;-89
2022/08/02 09:27:53;;;;;;;3.77;3.47;;;31.10;39.00;;;;;;20613;6839;117564;-85
2022/08/02 09:30:28;;;;;;;4.40;4.00;;;31.10;39.50;;;;;;20630;6837;117549;-90
2022/08/02 09:33:14;;;;;;;;;;;;;;;;;;;;;
2022/08/02 09:35:41;;;;;;;3.40;3.23;;;30.70;40.90;;;;;;20525;6840;118121;-88
2022/08/02 09:38:16;;;;;;;4.57;3.33;;;30.60;42.10;;;;;;20411;6839;313364;-86
2022/08/02 09:40:52;;;;;;;3.70;3.50;;;30.90;39.00;;;;;;20405;6839;280160;-84
2022/08/02 09:43:38;;;;;;;3.87;2.90;;;31.10;38.00;;;;;;20365;6839;344159;-91
2022/08/02 09:46:21;;;;;;;2.40;2.30;;;31.00;38.30;;;;;;20298;6839;316168;-88
2022/08/02 09:48:59;;;;;;;3.17;2.97;;;31.00;38.30;;;;;;20682;6827;119105;-87
2022/08/02 09:51:48;;;;;;;3.13;2.90;;;30.70;39.20;;;;;;20694;6812;117614;-86
2022/08/02 09:54:23;;;;;;;3.13;2.93;;;30.20;40.00;;;;;;20689;6812;118197;-89
2022/08/02 09:57:00;;;;;;;2.77;2.57;;;29.80;40.90;;;;;;20552;6812;119121;-91
2022/08/02 09:59:35;;;;;;;2.50;2.40;;;29.50;41.30;;;;;;20617;6839;118100;-86
2022/08/02 10:02:11;;;;;;;3.50;3.20;;;29.30;42.20;;;;;;20407;6802;278919;-85
2022/08/02 10:04:54;;;;;;;2.90;2.70;;;29.60;40.20;;;;;;20520;6802;309883;-88
2022/08/02 10:07:27;;;;;;;2.47;2.37;;;30.10;39.60;;;;;;20482;6863;118678;-85
2022/08/02 10:10:02;;;;;;;2.70;2.60;;;30.20;40.20;;;;;;20391;6831;310093;-86
2022/08/02 10:12:38;;;;;;;2.40;2.30;;;30.60;39.70;;;;;;20596;6830;117510;-85
2022/08/02 10:15:14;;;;;;;2.50;2.40;;;31.20;37.50;;;;;;20355;6830;284571;-86
2022/08/02 10:17:50;;;;;;;2.47;2.27;;;31.20;37.50;;;;;;20541;6865;118234;-89
2022/08/02 10:20:25;;;;;;;2.50;2.30;;;31.50;38.10;;;;;;20612;6841;119995;-85
2022/08/02 10:23:01;;;;;;;2.67;2.57;;;31.60;38.30;;;;;;20630;6812;117414;-85
2022/08/02 10:25:36;;;;;;;2.93;2.73;;;31.60;38.40;;;;;;20397;6812;285607;-88
2022/08/02 10:28:13;;;;;;;2.97;2.77;;;32.40;36.20;;;;;;20402;6825;311138;-87
2022/08/02 10:30:48;;;;;;;5.50;2.70;;;32.40;36.20;;;;;;20646;6815;117926;-90
2022/08/02 10:33:25;;;;;;;2.97;2.78;;;32.40;36.90;;;;;;20406;6815;326679;-88
2022/08/02 10:35:59;;;;;;;3.20;3.00;;;32.40;35.90;;;;;;20344;6821;314664;-88
2022/08/02 10:38:35;;;;;;;3.50;3.30;;;32.30;35.20;;;;;;20423;6836;309477;-88
2022/08/02 10:41:11;;;;;;;3.47;3.17;;;32.10;35.90;;;;;;20583;6832;120044;-86
2022/08/02 10:43:46;;;;;;;3.13;3.03;;;31.70;37.00;;;;;;20605;6828;118018;-85
2022/08/02 10:46:36;;;;;;;2.30;2.20;;;31.30;37.70;;;;;;20547;6829;117831;-86
2022/08/02 10:49:12;;;;;;;2.53;2.43;;;31.10;37.90;;;;;;20474;6814;308757;-89
2022/08/02 10:51:51;;;;;;;2.57;2.47;;;31.70;36.20;;;;;;20541;6799;308924;-86
2022/08/02 10:54:30;;;;;;;2.70;2.47;;;31.70;36.80;;;;;;20700;6814;118293;-92
2022/08/02 10:57:03;;;;;;;2.57;2.47;;;31.70;36.80;;;;;;20535;6814;117758;-85
2022/08/02 10:59:39;;;;;;;2.70;2.60;;;31.60;37.40;;;;;;20696;6817;118738;-85
2022/08/02 11:02:14;;;;;;;2.80;2.70;;;31.50;37.50;;;;;;20531;6799;279338;-88
2022/08/02 11:04:50;;;;;;;2.77;2.50;;;31.70;37.20;;;;;;20690;6840;118389;-90
2022/08/02 11:07:38;;;;;;;2.70;2.50;;;31.80;37.50;;;;;;20488;6870;118181;-87
2022/08/02 11:10:31;;;;;;;2.73;2.53;;;31.70;37.60;;;;;;20688;6814;119037;-86
2022/08/02 11:13:14;;;;;;;2.60;2.40;;;31.80;35.90;;;;;;20370;6829;280694;-87
2022/08/02 11:16:03;;;;;;;2.90;2.40;;;31.90;35.60;;;;;;20414;6799;311684;-88
2022/08/02 11:18:51;;;;;;;2.70;2.50;;;32.20;36.00;;;;;;20525;6799;337489;-88
2022/08/02 11:21:29;;;;;;;2.53;2.40;;;32.40;35.30;;;;;;20338;6839;312522;-88
2022/08/02 11:24:25;;;;;;;2.70;2.40;;;32.70;34.60;;;;;;20523;6798;341084;-88
2022/08/02 11:27:03;;;;;;;2.40;2.20;;;32.80;34.70;;;;;;20381;6798;280581;-87
2022/08/02 11:29:38;;;;;;;2.40;2.27;;;32.80;34.90;;;;;;20692;6798;117704;-87
2022/08/02 11:32:15;;;;;;;2.50;2.00;;;32.70;35.20;;;;;;20468;6855;279660;-87
2022/08/02 11:34:50;;;;;;;2.37;2.20;;;33.10;34.10;;;;;;20528;6798;300709;-86
2022/08/02 11:37:26;;;;;;;2.33;2.23;;;33.10;34.10;;;;;;20509;6870;119745;-89
2022/08/02 11:40:04;;;;;;;2.30;2.20;;;33.00;34.30;;;;;;20734;6799;117852;-87
2022/08/02 11:42:40;;;;;;;4.70;2.50;;;32.80;34.80;;;;;;20459;6799;308997;-91
2022/08/02 11:45:18;;;;;;;2.60;2.50;;;32.80;33.70;;;;;;20770;6799;116727;-91
2022/08/02 11:47:53;;;;;;;2.27;2.17;;;32.50;34.00;;;;;;20751;6799;117290;-89
2022/08/02 11:50:29;;;;;;;2.57;2.37;;;31.70;36.00;;;;;;20701;6799;117400;-87
2022/08/02 11:53:11;;;;;;;2.70;2.60;;;31.70;35.40;;;;;;20512;6799;337764;-89
2022/08/02 11:55:47;;;;;;;2.90;2.50;;;31.80;33.90;;;;;;20451;6799;311622;-88
2022/08/02 11:58:22;;;;;;;2.47;2.30;;;32.10;33.90;;;;;;20715;6799;66605;-88
2022/08/02 12:00:59;;;;;;;2.40;2.30;;;32.10;34.50;;;;;;20681;6799;117521;-87
2022/08/02 12:03:35;;;;;;;2.37;2.20;;;31.80;35.00;;;;;;20739;6799;117945;-87
2022/08/02 12:06:10;;;;;;;2.50;2.40;;;31.70;35.60;;;;;;20647;6799;118159;-88
2022/08/02 12:08:47;;;;;;;2.20;2.10;;;31.60;35.50;;;;;;20697;6814;117422;-88
2022/08/02 12:11:23;;;;;;;2.30;2.20;;;31.50;35.60;;;;;;20630;6814;117502;-88
2022/08/02 12:13:59;;;;;;;2.20;2.10;;;31.80;34.60;;;;;;20523;6799;306145;-88
2022/08/02 12:19:30;;;;;;;2.53;2.42;;;32.30;33.90;;;;;;20660;6701;118040;-86
2022/08/02 12:22:12;;;;;;;2.30;2.10;;;32.20;34.00;;;;;;20637;6817;116527;-86
2022/08/02 12:24:47;;;;;;;2.17;2.03;;;32.00;34.50;;;;;;20643;6817;117503;-89
2022/08/02 12:27:26;;;;;;;2.30;2.20;;;31.80;34.10;;;;;;20341;6799;310670;-88
2022/08/02 12:30:15;;;;;;;2.30;2.20;;;31.90;33.80;;;;;;20377;6868;279492;-86
2022/08/02 12:32:51;;;;;;;2.30;2.20;;;32.20;32.80;;;;;;20661;6828;116694;-89
2022/08/02 12:35:26;;;;;;;2.20;2.10;;;32.00;33.50;;;;;;20376;6835;283841;-90
2022/08/02 12:38:01;;;;;;;2.10;2.00;;;32.00;33.60;;;;;;20414;6876;280597;-87
2022/08/02 12:40:42;;;;;;;2.20;2.10;;;32.20;33.80;;;;;;20635;6835;120608;-89
2022/08/02 12:43:19;;;;;;;2.10;2.00;;;32.10;33.60;;;;;;20407;6835;309165;-88
2022/08/02 12:45:56;;;;;;;2.20;2.10;;;32.20;32.90;;;;;;20610;6813;119863;-86
2022/08/02 12:48:34;;;;;;;2.07;1.97;;;32.10;33.40;;;;;;20598;6845;117539;-88
2022/08/02 12:51:25;;;;;;;2.30;2.10;;;31.90;33.90;;;;;;20548;6841;118716;-87
2022/08/02 12:54:19;;;;;;;2.23;1.90;;;31.60;34.60;;;;;;20610;6841;117570;-91
2022/08/02 12:56:54;;;;;;;2.60;2.13;;;31.60;34.50;;;;;;20227;6841;285762;-89
2022/08/02 12:59:33;;;;;;;2.20;2.10;;;31.80;33.20;;;;;;20439;6824;280219;-87
2022/08/02 13:02:09;;;;;;;2.50;2.30;;;32.20;33.70;;;;;;20425;6835;309095;-87
2022/08/02 13:04:45;;;;;;;2.47;2.28;;;32.50;32.80;;;;;;20377;6849;314208;-87
2022/08/02 13:07:20;;;;;;;2.53;2.33;;;32.70;32.60;;;;;;20106;6865;433754;-89
2022/08/02 13:09:56;;;;;;;2.17;2.07;;;32.90;31.30;;;;;;20554;6847;118699;-91
2022/08/02 13:12:33;;;;;;;2.10;2.00;;;32.80;31.90;;;;;;20293;6860;285725;-87
2022/08/02 13:15:07;;;;;;;1.97;1.70;;;32.80;31.00;;;;;;20531;6842;118123;-88
2022/08/02 13:17:46;;;;;;;2.70;2.50;;;32.60;32.20;;;;;;20691;6815;117983;-91
2022/08/02 13:20:18;;;;;;;2.40;2.30;;;32.30;33.10;;;;;;20403;6842;317900;-86
2022/08/02 13:22:54;;;;;;;2.40;2.30;;;32.40;32.90;;;;;;20384;6842;291363;-87
2022/08/02 13:25:29;;;;;;;2.10;2.00;;;32.60;32.60;;;;;;20413;6815;281830;-91
2022/08/02 13:28:05;;;;;;;2.73;2.53;;;32.70;32.40;;;;;;20471;6817;279422;-87
2022/08/02 13:30:40;;;;;;;2.67;2.47;;;32.70;32.30;;;;;;20725;6799;117441;-87
2022/08/02 13:33:17;;;;;;;2.43;2.33;;;32.00;33.00;;;;;;20671;6814;119524;-86